sensor_id;sensor_type;location;lat;lon;timestamp;pressure;altitude;pressure_sealevel;temperature;humidity
59411;BME280;45215;32.610;-115.482;2022-07-06T00:00:04;100578.59;;;20.93;43.16
59411;BME280;45215;32.610;-115.482;2022-07-06T00:02:30;100567.03;;;20.70;48.27
59411;BME280;45215;32.610;-115.482;2022-07-06T00:04:56;100575.44;;;21.20;49.17
59411;BME280;45215;32.610;-115.482;2022-07-06T00:07:22;100577.56;;;20.94;42.97
59411;BME280;45215;32.610;-115.482;2022-07-06T00:09:49;100575.31;;;20.68;47.00
59411;BME280;45215;32.610;-115.482;2022-07-06T00:12:14;100571.25;;;21.17;48.70
59411;BME280;45215;32.610;-115.482;2022-07-06T00:14:40;100561.38;;;20.94;43.02
59411;BME280;45215;32.610;-115.482;2022-07-06T00:17:06;100562.22;;;20.65;46.19
59411;BME280;45215;32.610;-115.482;2022-07-06T00:19:32;100568.13;;;21.13;50.99
59411;BME280;45215;32.610;-115.482;2022-07-06T00:21:58;100559.97;;;20.99;43.01
59411;BME280;45215;32.610;-115.482;2022-07-06T00:24:24;100561.56;;;20.63;45.32
59411;BME280;45215;32.610;-115.482;2022-07-06T00:26:50;100571.16;;;21.10;50.73
59411;BME280;45215;32.610;-115.482;2022-07-06T00:29:15;100565.69;;;21.04;43.52
59411;BME280;45215;32.610;-115.482;2022-07-06T00:31:41;100552.94;;;20.68;44.10
59411;BME280;45215;32.610;-115.482;2022-07-06T00:34:07;100561.22;;;21.11;50.89
59411;BME280;45215;32.610;-115.482;2022-07-06T00:36:33;100562.91;;;21.12;43.75
59411;BME280;45215;32.610;-115.482;2022-07-06T00:38:58;100550.56;;;20.65;42.03
59411;BME280;45215;32.610;-115.482;2022-07-06T00:41:24;100555.25;;;21.01;50.41
59411;BME280;45215;32.610;-115.482;2022-07-06T00:43:51;100542.97;;;21.13;44.23
59411;BME280;45215;32.610;-115.482;2022-07-06T00:46:17;100548.75;;;20.65;42.23
59411;BME280;45215;32.610;-115.482;2022-07-06T00:48:43;100546.13;;;21.02;50.19
59411;BME280;45215;32.610;-115.482;2022-07-06T00:51:09;100543.47;;;21.16;44.20
59411;BME280;45215;32.610;-115.482;2022-07-06T00:53:35;100548.00;;;20.71;41.47
59411;BME280;45215;32.610;-115.482;2022-07-06T00:56:01;100556.81;;;20.95;50.31
59411;BME280;45215;32.610;-115.482;2022-07-06T00:58:27;100542.25;;;21.19;44.69
59411;BME280;45215;32.610;-115.482;2022-07-06T01:00:52;100546.59;;;20.76;41.31
59411;BME280;45215;32.610;-115.482;2022-07-06T01:03:18;100547.63;;;20.89;48.89
59411;BME280;45215;32.610;-115.482;2022-07-06T01:05:44;100540.19;;;21.21;45.71
59411;BME280;45215;32.610;-115.482;2022-07-06T01:08:10;100545.00;;;20.81;41.25
59411;BME280;45215;32.610;-115.482;2022-07-06T01:10:36;100555.44;;;20.84;48.84
59411;BME280;45215;32.610;-115.482;2022-07-06T01:13:02;100547.25;;;21.22;45.76
59411;BME280;45215;32.610;-115.482;2022-07-06T01:15:28;100537.38;;;20.85;41.58
59411;BME280;45215;32.610;-115.482;2022-07-06T01:17:54;100551.63;;;20.79;48.58
59411;BME280;45215;32.610;-115.482;2022-07-06T01:20:23;100548.09;;;21.23;46.32
59411;BME280;45215;32.610;-115.482;2022-07-06T01:22:50;100547.34;;;20.84;41.56
59411;BME280;45215;32.610;-115.482;2022-07-06T01:25:17;100551.06;;;20.83;48.10
59411;BME280;45215;32.610;-115.482;2022-07-06T01:27:43;100546.88;;;21.25;45.88
59411;BME280;45215;32.610;-115.482;2022-07-06T01:30:10;100546.34;;;20.85;41.42
59411;BME280;45215;32.610;-115.482;2022-07-06T01:32:37;100545.84;;;20.82;48.16
59411;BME280;45215;32.610;-115.482;2022-07-06T01:35:03;100541.88;;;21.22;46.17
59411;BME280;45215;32.610;-115.482;2022-07-06T01:37:30;100540.56;;;20.88;41.50
59411;BME280;45215;32.610;-115.482;2022-07-06T01:39:59;100536.47;;;20.78;48.18
59411;BME280;45215;32.610;-115.482;2022-07-06T01:42:26;100552.00;;;21.20;46.51
59411;BME280;45215;32.610;-115.482;2022-07-06T01:44:52;100543.63;;;20.85;41.49
59411;BME280;45215;32.610;-115.482;2022-07-06T01:47:18;100554.78;;;20.82;48.58
59411;BME280;45215;32.610;-115.482;2022-07-06T01:49:44;100555.34;;;21.22;45.99
59411;BME280;45215;32.610;-115.482;2022-07-06T01:52:09;100554.97;;;20.81;41.25
59411;BME280;45215;32.610;-115.482;2022-07-06T01:54:35;100556.38;;;20.77;47.66
59411;BME280;45215;32.610;-115.482;2022-07-06T01:57:01;100559.88;;;21.22;46.26
59411;BME280;45215;32.610;-115.482;2022-07-06T01:59:27;100562.81;;;21.05;41.69
59411;BME280;45215;32.610;-115.482;2022-07-06T02:01:53;100565.22;;;20.85;46.56
59411;BME280;45215;32.610;-115.482;2022-07-06T02:04:18;100574.13;;;21.30;47.49
59411;BME280;45215;32.610;-115.482;2022-07-06T02:06:44;100575.78;;;21.02;42.85
59411;BME280;45215;32.610;-115.482;2022-07-06T02:09:10;100572.44;;;20.85;46.48
59411;BME280;45215;32.610;-115.482;2022-07-06T02:11:36;100577.81;;;21.44;48.64
59411;BME280;45215;32.610;-115.482;2022-07-06T02:14:01;100564.72;;;21.26;42.12
59411;BME280;45215;32.610;-115.482;2022-07-06T02:16:27;100576.53;;;20.81;43.26
59411;BME280;45215;32.610;-115.482;2022-07-06T02:18:53;100580.47;;;21.23;50.92
59411;BME280;45215;32.610;-115.482;2022-07-06T02:21:19;100581.31;;;21.23;43.99
59411;BME280;45215;32.610;-115.482;2022-07-06T02:23:45;100576.75;;;20.79;42.29
59411;BME280;45215;32.610;-115.482;2022-07-06T02:26:10;100588.84;;;21.13;51.00
59411;BME280;45215;32.610;-115.482;2022-07-06T02:28:36;100589.78;;;21.20;44.39
59411;BME280;45215;32.610;-115.482;2022-07-06T02:31:02;100584.34;;;20.76;41.43
59411;BME280;45215;32.610;-115.482;2022-07-06T02:33:28;100582.91;;;21.03;50.57
59411;BME280;45215;32.610;-115.482;2022-07-06T02:35:53;100590.22;;;21.24;44.62
59411;BME280;45215;32.610;-115.482;2022-07-06T02:38:19;100585.16;;;20.76;41.30
59411;BME280;45215;32.610;-115.482;2022-07-06T02:40:45;100589.09;;;20.88;50.06
59411;BME280;45215;32.610;-115.482;2022-07-06T02:43:11;100593.97;;;21.23;45.75
59411;BME280;45215;32.610;-115.482;2022-07-06T02:45:36;100584.63;;;20.81;41.41
59411;BME280;45215;32.610;-115.482;2022-07-06T02:48:02;100591.88;;;20.80;49.42
59411;BME280;45215;32.610;-115.482;2022-07-06T02:50:28;100596.19;;;21.19;46.33
59411;BME280;45215;32.610;-115.482;2022-07-06T02:52:54;100586.94;;;20.84;42.04
59411;BME280;45215;32.610;-115.482;2022-07-06T02:55:20;100596.16;;;20.89;48.70
59411;BME280;45215;32.610;-115.482;2022-07-06T02:57:46;100594.03;;;21.29;46.28
59411;BME280;45215;32.610;-115.482;2022-07-06T03:00:12;100589.47;;;20.85;41.37
59411;BME280;45215;32.610;-115.482;2022-07-06T03:02:38;100600.25;;;20.85;49.14
59411;BME280;45215;32.610;-115.482;2022-07-06T03:05:04;100601.22;;;21.22;45.91
59411;BME280;45215;32.610;-115.482;2022-07-06T03:07:30;100592.91;;;20.79;41.33
59411;BME280;45215;32.610;-115.482;2022-07-06T03:09:55;100598.94;;;20.81;48.97
59411;BME280;45215;32.610;-115.482;2022-07-06T03:12:21;100601.22;;;21.22;46.19
59411;BME280;45215;32.610;-115.482;2022-07-06T03:14:47;100600.63;;;20.82;41.65
59411;BME280;45215;32.610;-115.482;2022-07-06T03:17:13;100605.44;;;20.72;48.27
59411;BME280;45215;32.610;-115.482;2022-07-06T03:19:39;100597.88;;;21.20;47.21
59411;BME280;45215;32.610;-115.482;2022-07-06T03:22:05;100603.97;;;20.84;41.84
59411;BME280;45215;32.610;-115.482;2022-07-06T03:24:31;100603.03;;;20.77;47.92
59411;BME280;45215;32.610;-115.482;2022-07-06T03:26:56;100602.22;;;21.21;46.76
59411;BME280;45215;32.610;-115.482;2022-07-06T03:29:22;100603.97;;;20.84;41.68
59411;BME280;45215;32.610;-115.482;2022-07-06T03:31:48;100612.72;;;20.86;49.57
59411;BME280;45215;32.610;-115.482;2022-07-06T03:34:14;100621.56;;;21.25;45.89
59411;BME280;45215;32.610;-115.482;2022-07-06T03:36:39;100616.06;;;20.88;41.66
59411;BME280;45215;32.610;-115.482;2022-07-06T03:39:05;100618.19;;;20.78;47.52
59411;BME280;45215;32.610;-115.482;2022-07-06T03:41:31;100619.72;;;21.25;47.86
59411;BME280;45215;32.610;-115.482;2022-07-06T03:43:57;100620.25;;;20.91;42.48
59411;BME280;45215;32.610;-115.482;2022-07-06T03:46:23;100623.41;;;20.80;47.91
59411;BME280;45215;32.610;-115.482;2022-07-06T03:48:49;100631.06;;;21.21;47.45
59411;BME280;45215;32.610;-115.482;2022-07-06T03:51:15;100628.41;;;20.83;42.74
59411;BME280;45215;32.610;-115.482;2022-07-06T03:53:41;100636.50;;;20.68;48.13
59411;BME280;45215;32.610;-115.482;2022-07-06T03:56:06;100631.44;;;21.17;48.83
59411;BME280;45215;32.610;-115.482;2022-07-06T03:58:51;100639.75;;;20.78;42.12
59411;BME280;45215;32.610;-115.482;2022-07-06T04:01:16;100634.28;;;20.86;50.14
59411;BME280;45215;32.610;-115.482;2022-07-06T04:03:42;100636.38;;;21.14;45.58
59411;BME280;45215;32.610;-115.482;2022-07-06T04:06:09;100638.63;;;20.72;42.64
59411;BME280;45215;32.610;-115.482;2022-07-06T04:08:35;100636.16;;;21.01;50.85
59411;BME280;45215;32.610;-115.482;2022-07-06T04:11:01;100643.44;;;21.15;44.18
59411;BME280;45215;32.610;-115.482;2022-07-06T04:13:27;100649.97;;;20.68;43.08
59411;BME280;45215;32.610;-115.482;2022-07-06T04:15:53;100651.66;;;20.99;50.57
59411;BME280;45215;32.610;-115.482;2022-07-06T04:18:18;100653.16;;;21.01;43.34
59411;BME280;45215;32.610;-115.482;2022-07-06T04:20:44;100645.84;;;20.57;44.49
59411;BME280;45215;32.610;-115.482;2022-07-06T04:23:10;100662.44;;;20.99;50.74
59411;BME280;45215;32.610;-115.482;2022-07-06T04:25:36;100666.00;;;20.99;43.40
59411;BME280;45215;32.610;-115.482;2022-07-06T04:28:02;100673.38;;;20.67;46.11
59411;BME280;45215;32.610;-115.482;2022-07-06T04:30:28;100674.59;;;21.17;50.17
59411;BME280;45215;32.610;-115.482;2022-07-06T04:32:54;100677.63;;;21.00;42.92
59411;BME280;45215;32.610;-115.482;2022-07-06T04:35:20;100681.97;;;20.86;48.38
59411;BME280;45215;32.610;-115.482;2022-07-06T04:37:46;100681.31;;;21.51;46.50
59411;BME280;45215;32.610;-115.482;2022-07-06T04:40:12;100680.97;;;21.02;41.40
59411;BME280;45215;32.610;-115.482;2022-07-06T04:42:38;100686.16;;;20.88;48.84
59411;BME280;45215;32.610;-115.482;2022-07-06T04:45:04;100695.63;;;21.22;46.43
59411;BME280;45215;32.610;-115.482;2022-07-06T04:47:30;100692.03;;;20.92;43.25
59411;BME280;45215;32.610;-115.482;2022-07-06T04:49:56;100695.56;;;20.55;42.58
59411;BME280;45215;32.610;-115.482;2022-07-06T04:52:22;100702.81;;;20.31;43.04
59411;BME280;45215;32.610;-115.482;2022-07-06T04:54:48;100698.13;;;20.71;52.72
59411;BME280;45215;32.610;-115.482;2022-07-06T04:57:13;100699.94;;;20.93;46.10
59411;BME280;45215;32.610;-115.482;2022-07-06T04:59:39;100707.78;;;20.65;42.83
59411;BME280;45215;32.610;-115.482;2022-07-06T05:02:05;100705.63;;;20.38;40.92
59411;BME280;45215;32.610;-115.482;2022-07-06T05:04:31;100713.63;;;20.23;43.30
59411;BME280;45215;32.610;-115.482;2022-07-06T05:06:56;100720.69;;;20.70;49.91
59411;BME280;45215;32.610;-115.482;2022-07-06T05:09:22;100712.53;;;20.78;43.47
59411;BME280;45215;32.610;-115.482;2022-07-06T05:11:48;100721.16;;;20.50;45.08
59411;BME280;45215;32.610;-115.482;2022-07-06T05:14:14;100721.16;;;20.97;51.44
59411;BME280;45215;32.610;-115.482;2022-07-06T05:16:40;100711.66;;;21.01;44.97
59411;BME280;45215;32.610;-115.482;2022-07-06T05:19:06;100712.66;;;20.62;45.47
59411;BME280;45215;32.610;-115.482;2022-07-06T05:21:31;100722.44;;;21.01;52.16
59411;BME280;45215;32.610;-115.482;2022-07-06T05:23:57;100724.00;;;20.95;44.96
59411;BME280;45215;32.610;-115.482;2022-07-06T05:26:23;100727.69;;;20.56;44.50
59411;BME280;45215;32.610;-115.482;2022-07-06T05:28:49;100728.13;;;20.91;51.30
59411;BME280;45215;32.610;-115.482;2022-07-06T05:31:15;100737.78;;;21.00;45.26
59411;BME280;45215;32.610;-115.482;2022-07-06T05:33:40;100734.88;;;20.64;45.15
59411;BME280;45215;32.610;-115.482;2022-07-06T05:36:06;100737.34;;;20.97;50.92
59411;BME280;45215;32.610;-115.482;2022-07-06T05:38:32;100740.81;;;21.05;45.17
59411;BME280;45215;32.610;-115.482;2022-07-06T05:40:58;100738.63;;;20.63;44.08
59411;BME280;45215;32.610;-115.482;2022-07-06T05:43:24;100750.81;;;20.97;51.25
59411;BME280;45215;32.610;-115.482;2022-07-06T05:45:50;100741.66;;;21.06;45.64
59411;BME280;45215;32.610;-115.482;2022-07-06T05:48:16;100731.38;;;20.63;45.72
59411;BME280;45215;32.610;-115.482;2022-07-06T05:51:00;100749.06;;;21.04;52.00
59411;BME280;45215;32.610;-115.482;2022-07-06T05:53:26;100740.50;;;21.00;45.07
59411;BME280;45215;32.610;-115.482;2022-07-06T05:55:51;100742.63;;;20.67;47.57
59411;BME280;45215;32.610;-115.482;2022-07-06T05:58:17;100742.13;;;21.09;52.36
59411;BME280;45215;32.610;-115.482;2022-07-06T06:00:43;100751.06;;;21.02;44.70
59411;BME280;45215;32.610;-115.482;2022-07-06T06:03:09;100751.66;;;20.74;49.12
59411;BME280;45215;32.610;-115.482;2022-07-06T06:05:35;100759.44;;;21.15;52.30
59411;BME280;45215;32.610;-115.482;2022-07-06T06:08:00;100754.16;;;20.99;44.44
59411;BME280;45215;32.610;-115.482;2022-07-06T06:10:26;100758.56;;;20.77;49.13
59411;BME280;45215;32.610;-115.482;2022-07-06T06:12:52;100765.13;;;21.20;51.39
59411;BME280;45215;32.610;-115.482;2022-07-06T06:15:18;100757.78;;;20.91;43.71
59411;BME280;45215;32.610;-115.482;2022-07-06T06:17:44;100767.28;;;20.79;50.01
59411;BME280;45215;32.610;-115.482;2022-07-06T06:20:11;100769.69;;;21.20;51.09
59411;BME280;45215;32.610;-115.482;2022-07-06T06:22:47;100766.38;;;20.86;43.60
59411;BME280;45215;32.610;-115.482;2022-07-06T06:25:17;100775.78;;;20.90;51.15
59411;BME280;45215;32.610;-115.482;2022-07-06T06:27:44;100776.75;;;21.21;48.16
59411;BME280;45215;32.610;-115.482;2022-07-06T06:30:09;100780.50;;;20.74;44.28
59411;BME280;45215;32.610;-115.482;2022-07-06T06:32:35;100780.34;;;20.90;51.37
59411;BME280;45215;32.610;-115.482;2022-07-06T06:35:02;100782.97;;;21.21;47.57
59411;BME280;45215;32.610;-115.482;2022-07-06T06:37:28;100779.63;;;20.73;45.33
59411;BME280;45215;32.610;-115.482;2022-07-06T06:39:53;100789.19;;;20.99;52.00
59411;BME280;45215;32.610;-115.482;2022-07-06T06:42:19;100787.75;;;21.19;46.77
59411;BME280;45215;32.610;-115.482;2022-07-06T06:44:45;100786.72;;;20.74;45.87
59411;BME280;45215;32.610;-115.482;2022-07-06T06:47:11;100792.22;;;21.04;51.60
59411;BME280;45215;32.610;-115.482;2022-07-06T06:49:36;100787.44;;;21.14;45.92
59411;BME280;45215;32.610;-115.482;2022-07-06T06:52:02;100786.22;;;20.70;47.39
59411;BME280;45215;32.610;-115.482;2022-07-06T06:54:28;100782.78;;;21.08;51.79
59411;BME280;45215;32.610;-115.482;2022-07-06T06:56:54;100784.81;;;21.06;45.50
59411;BME280;45215;32.610;-115.482;2022-07-06T06:59:20;100791.59;;;20.70;47.88
59411;BME280;45215;32.610;-115.482;2022-07-06T07:01:45;100799.44;;;21.11;51.97
59411;BME280;45215;32.610;-115.482;2022-07-06T07:04:11;100788.84;;;21.02;45.14
59411;BME280;45215;32.610;-115.482;2022-07-06T07:06:37;100790.41;;;20.73;49.35
59411;BME280;45215;32.610;-115.482;2022-07-06T07:09:03;100790.13;;;21.14;52.09
59411;BME280;45215;32.610;-115.482;2022-07-06T07:11:28;100786.56;;;20.90;44.28
59411;BME280;45215;32.610;-115.482;2022-07-06T07:13:54;100794.75;;;20.82;51.17
59411;BME280;45215;32.610;-115.482;2022-07-06T07:16:20;100790.06;;;21.22;50.35
59411;BME280;45215;32.610;-115.482;2022-07-06T07:18:46;100783.97;;;20.82;43.51
59411;BME280;45215;32.610;-115.482;2022-07-06T07:21:13;100785.63;;;20.83;51.43
59411;BME280;45215;32.610;-115.482;2022-07-06T07:23:38;100781.09;;;21.22;49.71
59411;BME280;45215;32.610;-115.482;2022-07-06T07:26:04;100777.22;;;20.78;44.23
59411;BME280;45215;32.610;-115.482;2022-07-06T07:28:30;100782.88;;;20.91;52.05
59411;BME280;45215;32.610;-115.482;2022-07-06T07:30:56;100774.72;;;21.23;48.47
59411;BME280;45215;32.610;-115.482;2022-07-06T07:33:22;100778.63;;;20.74;45.38
59411;BME280;45215;32.610;-115.482;2022-07-06T07:35:48;100785.50;;;21.00;52.20
59411;BME280;45215;32.610;-115.482;2022-07-06T07:38:13;100773.00;;;21.22;47.99
59411;BME280;45215;32.610;-115.482;2022-07-06T07:40:39;100780.50;;;20.74;46.22
59411;BME280;45215;32.610;-115.482;2022-07-06T07:43:05;100780.75;;;21.02;52.08
59411;BME280;45215;32.610;-115.482;2022-07-06T07:45:31;100785.88;;;21.20;47.25
59411;BME280;45215;32.610;-115.482;2022-07-06T07:47:56;100777.97;;;20.72;47.45
59411;BME280;45215;32.610;-115.482;2022-07-06T07:50:22;100776.72;;;21.06;52.22
59411;BME280;45215;32.610;-115.482;2022-07-06T07:52:48;100774.59;;;21.16;46.51
59411;BME280;45215;32.610;-115.482;2022-07-06T07:55:14;100774.59;;;20.70;48.30
59411;BME280;45215;32.610;-115.482;2022-07-06T07:57:40;100777.72;;;21.05;52.75
59411;BME280;45215;32.610;-115.482;2022-07-06T08:00:06;100779.72;;;21.11;46.10
59411;BME280;45215;32.610;-115.482;2022-07-06T08:02:32;100788.06;;;20.70;48.98
59411;BME280;45215;32.610;-115.482;2022-07-06T08:04:57;100783.78;;;21.07;53.04
59411;BME280;45215;32.610;-115.482;2022-07-06T08:07:23;100778.00;;;21.10;46.34
59411;BME280;45215;32.610;-115.482;2022-07-06T08:09:49;100783.34;;;20.72;49.54
59411;BME280;45215;32.610;-115.482;2022-07-06T08:12:15;100788.63;;;21.11;52.79
59411;BME280;45215;32.610;-115.482;2022-07-06T08:14:41;100784.06;;;21.12;46.08
59411;BME280;45215;32.610;-115.482;2022-07-06T08:17:06;100784.84;;;20.75;49.71
59411;BME280;45215;32.610;-115.482;2022-07-06T08:19:32;100782.69;;;21.16;53.10
59411;BME280;45215;32.610;-115.482;2022-07-06T08:21:58;100774.69;;;21.08;45.55
59411;BME280;45215;32.610;-115.482;2022-07-06T08:24:24;100778.63;;;20.74;50.10
59411;BME280;45215;32.610;-115.482;2022-07-06T08:26:52;100792.47;;;21.17;52.77
59411;BME280;45215;32.610;-115.482;2022-07-06T08:29:17;100785.81;;;21.05;45.30
59411;BME280;45215;32.610;-115.482;2022-07-06T08:31:43;100787.34;;;20.76;50.22
59411;BME280;45215;32.610;-115.482;2022-07-06T08:34:09;100797.50;;;21.20;52.40
59411;BME280;45215;32.610;-115.482;2022-07-06T08:36:35;100796.91;;;21.10;45.44
59411;BME280;45215;32.610;-115.482;2022-07-06T08:39:00;100791.38;;;20.80;50.14
59411;BME280;45215;32.610;-115.482;2022-07-06T08:41:28;100794.13;;;21.18;52.54
59411;BME280;45215;32.610;-115.482;2022-07-06T08:43:54;100790.00;;;21.07;45.56
59411;BME280;45215;32.610;-115.482;2022-07-06T08:46:20;100790.03;;;20.76;50.18
59411;BME280;45215;32.610;-115.482;2022-07-06T08:48:46;100789.41;;;21.20;52.81
59411;BME280;45215;32.610;-115.482;2022-07-06T08:51:13;100789.38;;;21.05;45.41
59411;BME280;45215;32.610;-115.482;2022-07-06T08:53:42;100799.16;;;20.75;50.71
59411;BME280;45215;32.610;-115.482;2022-07-06T08:56:09;100799.16;;;21.21;52.88
59411;BME280;45215;32.610;-115.482;2022-07-06T08:58:35;100797.78;;;21.02;45.14
59411;BME280;45215;32.610;-115.482;2022-07-06T09:01:02;100789.72;;;20.79;52.11
59411;BME280;45215;32.610;-115.482;2022-07-06T09:03:28;100791.72;;;21.23;53.09
59411;BME280;45215;32.610;-115.482;2022-07-06T09:05:56;100792.94;;;20.98;44.84
59411;BME280;45215;32.610;-115.482;2022-07-06T09:08:25;100794.06;;;20.80;51.64
59411;BME280;45215;32.610;-115.482;2022-07-06T09:10:52;100790.69;;;21.24;52.84
59411;BME280;45215;32.610;-115.482;2022-07-06T09:13:18;100790.97;;;20.91;44.93
59411;BME280;45215;32.610;-115.482;2022-07-06T09:15:44;100793.34;;;20.86;52.40
59411;BME280;45215;32.610;-115.482;2022-07-06T09:18:10;100794.34;;;21.31;52.86
59411;BME280;45215;32.610;-115.482;2022-07-06T09:20:36;100790.59;;;20.94;44.53
59411;BME280;45215;32.610;-115.482;2022-07-06T09:23:05;100787.97;;;20.86;52.47
59411;BME280;45215;32.610;-115.482;2022-07-06T09:25:31;100788.13;;;21.31;52.76
59411;BME280;45215;32.610;-115.482;2022-07-06T09:27:58;100786.56;;;20.90;44.28
59411;BME280;45215;32.610;-115.482;2022-07-06T09:30:24;100796.06;;;20.86;52.51
59411;BME280;45215;32.610;-115.482;2022-07-06T09:33:00;100792.66;;;21.30;52.83
59411;BME280;45215;32.610;-115.482;2022-07-06T09:35:27;100779.50;;;20.89;44.81
59411;BME280;45215;32.610;-115.482;2022-07-06T09:38:00;100785.25;;;20.86;52.56
59411;BME280;45215;32.610;-115.482;2022-07-06T09:40:26;100788.97;;;21.31;52.51
59411;BME280;45215;32.610;-115.482;2022-07-06T09:43:06;100792.81;;;20.91;44.51
59411;BME280;45215;32.610;-115.482;2022-07-06T09:45:33;100793.19;;;20.88;52.79
59411;BME280;45215;32.610;-115.482;2022-07-06T09:48:04;100791.19;;;21.28;52.39
59411;BME280;45215;32.610;-115.482;2022-07-06T09:50:37;100792.88;;;20.83;44.69
59411;BME280;45215;32.610;-115.482;2022-07-06T09:53:03;100796.06;;;20.86;52.80
59411;BME280;45215;32.610;-115.482;2022-07-06T09:55:29;100802.25;;;21.33;52.68
59411;BME280;45215;32.610;-115.482;2022-07-06T09:57:55;100792.63;;;20.92;44.64
59411;BME280;45215;32.610;-115.482;2022-07-06T10:00:21;100800.41;;;20.87;52.76
59411;BME280;45215;32.610;-115.482;2022-07-06T10:02:47;100799.28;;;21.28;52.54
59411;BME280;45215;32.610;-115.482;2022-07-06T10:05:15;100797.56;;;20.89;44.62
59411;BME280;45215;32.610;-115.482;2022-07-06T10:07:42;100796.41;;;20.83;52.62
59411;BME280;45215;32.610;-115.482;2022-07-06T10:10:08;100801.50;;;21.24;52.93
59411;BME280;45215;32.610;-115.482;2022-07-06T10:12:34;100800.34;;;20.95;44.89
59411;BME280;45215;32.610;-115.482;2022-07-06T10:15:02;100806.53;;;20.81;52.13
59411;BME280;45215;32.610;-115.482;2022-07-06T10:17:28;100803.91;;;21.19;53.05
59411;BME280;45215;32.610;-115.482;2022-07-06T10:19:54;100802.53;;;21.00;45.68
59411;BME280;45215;32.610;-115.482;2022-07-06T10:22:21;100810.97;;;20.74;51.12
59411;BME280;45215;32.610;-115.482;2022-07-06T10:24:46;100809.03;;;21.14;53.33
59411;BME280;45215;32.610;-115.482;2022-07-06T10:27:13;100814.78;;;21.11;46.33
59411;BME280;45215;32.610;-115.482;2022-07-06T10:29:40;100812.84;;;20.74;50.92
59411;BME280;45215;32.610;-115.482;2022-07-06T10:32:06;100817.84;;;21.08;53.16
59411;BME280;45215;32.610;-115.482;2022-07-06T10:34:32;100817.94;;;21.14;46.60
59411;BME280;45215;32.610;-115.482;2022-07-06T10:37:00;100827.31;;;20.72;50.58
59411;BME280;45215;32.610;-115.482;2022-07-06T10:39:34;100824.91;;;21.09;53.45
59411;BME280;45215;32.610;-115.482;2022-07-06T10:45:03;100823.75;;;20.80;52.04
59411;BME280;45215;32.610;-115.482;2022-07-06T10:47:29;100828.00;;;21.21;52.88
59411;BME280;45215;32.610;-115.482;2022-07-06T10:49:54;100828.31;;;21.03;45.48
59411;BME280;45215;32.610;-115.482;2022-07-06T10:52:42;100832.00;;;20.79;51.67
59411;BME280;45215;32.610;-115.482;2022-07-06T10:55:32;100829.50;;;21.23;52.92
59411;BME280;45215;32.610;-115.482;2022-07-06T10:57:56;100827.88;;;20.91;45.02
59411;BME280;45215;32.610;-115.482;2022-07-06T11:00:22;100829.97;;;20.81;52.79
59411;BME280;45215;32.610;-115.482;2022-07-06T11:02:47;100832.38;;;21.22;53.05
59411;BME280;45215;32.610;-115.482;2022-07-06T11:08:00;100842.06;;;20.85;52.99
59411;BME280;45215;32.610;-115.482;2022-07-06T11:10:26;100841.59;;;21.27;52.75
59411;BME280;45215;32.610;-115.482;2022-07-06T11:12:58;100836.91;;;20.98;45.15
59411;BME280;45215;32.610;-115.482;2022-07-06T11:18:10;100847.00;;;21.27;52.98
59411;BME280;45215;32.610;-115.482;2022-07-06T11:20:37;100846.19;;;20.95;45.02
59411;BME280;45215;32.610;-115.482;2022-07-06T11:23:03;100839.59;;;20.75;52.78
59411;BME280;45215;32.610;-115.482;2022-07-06T11:25:29;100850.13;;;21.16;53.26
59411;BME280;45215;32.610;-115.482;2022-07-06T11:27:55;100840.72;;;21.12;46.18
59411;BME280;45215;32.610;-115.482;2022-07-06T11:30:21;100849.34;;;20.76;51.51
59411;BME280;45215;32.610;-115.482;2022-07-06T11:32:47;100846.94;;;21.12;53.38
59411;BME280;45215;32.610;-115.482;2022-07-06T11:35:20;100839.81;;;21.20;46.55
59411;BME280;45215;32.610;-115.482;2022-07-06T11:37:46;100842.78;;;20.79;51.27
59411;BME280;45215;32.610;-115.482;2022-07-06T11:40:13;100855.50;;;21.16;52.95
59411;BME280;45215;32.610;-115.482;2022-07-06T11:42:39;100844.66;;;21.24;46.64
59411;BME280;45215;32.610;-115.482;2022-07-06T11:45:05;100842.13;;;20.77;50.22
59411;BME280;45215;32.610;-115.482;2022-07-06T11:47:31;100850.22;;;21.08;53.31
59411;BME280;45215;32.610;-115.482;2022-07-06T11:49:57;100858.09;;;21.32;47.82
59411;BME280;45215;32.610;-115.482;2022-07-06T11:52:23;100862.69;;;20.78;49.52
59411;BME280;45215;32.610;-115.482;2022-07-06T11:54:49;100868.00;;;21.17;53.45
59411;BME280;45215;32.610;-115.482;2022-07-06T11:57:15;100863.41;;;21.41;47.80
59411;BME280;45215;32.610;-115.482;2022-07-06T11:59:42;100863.88;;;20.75;48.54
59411;BME280;45215;32.610;-115.482;2022-07-06T12:02:12;100867.25;;;21.00;53.66
59411;BME280;45215;32.610;-115.482;2022-07-06T12:04:40;100872.53;;;21.39;49.96
59411;BME280;45215;32.610;-115.482;2022-07-06T12:07:07;100866.88;;;20.80;46.53
59411;BME280;45215;32.610;-115.482;2022-07-06T12:09:34;100878.56;;;20.95;53.63
59411;BME280;45215;32.610;-115.482;2022-07-06T12:12:00;100878.94;;;21.38;51.27
59411;BME280;45215;32.610;-115.482;2022-07-06T12:14:29;100877.97;;;20.85;44.52
59411;BME280;45215;32.610;-115.482;2022-07-06T12:16:55;100880.66;;;20.85;53.05
59411;BME280;45215;32.610;-115.482;2022-07-06T12:19:21;100881.44;;;21.25;51.87
59411;BME280;45215;32.610;-115.482;2022-07-06T12:21:48;100879.00;;;21.07;45.02
59411;BME280;45215;32.610;-115.482;2022-07-06T12:24:21;100886.41;;;20.82;51.91